createdAt,value
2022-10-26T00:01:26.644Z,4.70
2022-10-26T00:04:28.282Z,4.47
2022-10-26T00:07:30.421Z,4.53
2022-10-26T00:10:34.956Z,4.82
2022-10-26T00:13:37.676Z,4.57
2022-10-26T00:16:39.221Z,4.32
2022-10-26T00:19:40.850Z,4.10
2022-10-26T00:22:42.451Z,4.10
2022-10-26T00:25:44.675Z,4.22
2022-10-26T00:28:46.232Z,4.23
2022-10-26T00:31:47.780Z,4.40
2022-10-26T00:34:49.293Z,4.30
2022-10-26T00:37:55.962Z,3.67
2022-10-26T00:44:42.900Z,4.00
2022-10-26T00:47:53.025Z,3.88
2022-10-26T00:50:58.488Z,3.75
2022-10-26T00:54:04.050Z,3.78
2022-10-26T00:57:06.435Z,3.50
2022-10-26T01:00:08.596Z,4.10
2022-10-26T01:03:11.253Z,3.67
2022-10-26T01:06:14.194Z,3.80
2022-10-26T01:09:17.800Z,3.78
2022-10-26T01:12:19.301Z,3.72
2022-10-26T01:15:27.409Z,4.18
2022-10-26T01:18:38.180Z,3.70
2022-10-26T01:22:02.138Z,3.78
2022-10-26T01:25:32.712Z,3.60
2022-10-26T01:28:58.677Z,3.83
2022-10-26T01:32:10.709Z,3.60
2022-10-26T01:35:28.990Z,3.60
2022-10-26T01:38:35.643Z,3.73
2022-10-26T01:41:49.911Z,3.60
2022-10-26T01:45:02.634Z,3.72
2022-10-26T01:48:04.591Z,4.00
2022-10-26T01:51:08.348Z,3.80
2022-10-26T01:54:10.573Z,3.75
2022-10-26T01:57:15.438Z,4.20
2022-10-26T02:00:17.235Z,4.10
2022-10-26T02:03:33.941Z,3.75
2022-10-26T02:07:08.217Z,3.60
2022-10-26T02:10:18.535Z,4.30
2022-10-26T02:13:44.617Z,4.10
2022-10-26T02:17:02.624Z,4.20
2022-10-26T02:20:08.759Z,4.20
2022-10-26T02:23:12.166Z,4.13
2022-10-26T02:26:18.124Z,4.25
2022-10-26T02:29:21.139Z,4.40
2022-10-26T02:32:25.882Z,4.60
2022-10-26T02:35:34.552Z,4.47
2022-10-26T02:38:39.432Z,4.13
2022-10-26T02:41:43.759Z,4.15
2022-10-26T02:44:51.405Z,4.43
2022-10-26T02:47:54.560Z,4.32
2022-10-26T02:51:18.298Z,4.20
2022-10-26T02:54:51.233Z,4.10
2022-10-26T02:57:58.236Z,4.10
2022-10-26T03:01:00.413Z,3.80
2022-10-26T03:04:02.174Z,4.00
2022-10-26T03:07:03.765Z,4.00
2022-10-26T03:10:05.826Z,4.00
2022-10-26T03:13:07.914Z,4.00
2022-10-26T03:16:09.624Z,4.15
2022-10-26T03:19:11.197Z,4.03
2022-10-26T03:22:12.728Z,4.03
2022-10-26T03:25:15.602Z,3.90
2022-10-26T03:28:17.141Z,3.60
2022-10-26T03:31:18.724Z,3.60
2022-10-26T03:34:21.043Z,3.45
2022-10-26T03:37:22.515Z,3.70
2022-10-26T03:40:24.121Z,3.57
2022-10-26T03:43:25.621Z,3.28
2022-10-26T03:46:27.129Z,3.30
2022-10-26T03:49:28.992Z,3.75
2022-10-26T03:52:30.507Z,3.63
2022-10-26T03:55:32.053Z,3.47
2022-10-26T03:58:33.613Z,3.25
2022-10-26T04:01:35.277Z,3.47
2022-10-26T04:04:36.917Z,3.60
2022-10-26T04:07:38.478Z,3.53
2022-10-26T04:10:40.057Z,3.65
2022-10-26T04:13:41.606Z,3.33
2022-10-26T04:16:43.165Z,3.22
2022-10-26T04:19:44.693Z,3.50
2022-10-26T04:22:46.252Z,3.92
2022-10-26T04:25:47.853Z,3.58
2022-10-26T04:28:49.407Z,3.70
2022-10-26T04:31:50.990Z,3.65
2022-10-26T04:34:54.350Z,4.10
2022-10-26T04:38:00.091Z,3.95
2022-10-26T04:41:01.787Z,4.20
2022-10-26T04:44:03.332Z,4.32
2022-10-26T04:47:04.884Z,4.57
2022-10-26T04:50:08.319Z,4.38
2022-10-26T04:53:10.571Z,4.30
2022-10-26T04:56:12.102Z,4.20
2022-10-26T04:59:13.629Z,4.47
2022-10-26T05:02:15.341Z,4.43
2022-10-26T05:05:17.010Z,4.40
2022-10-26T05:08:18.528Z,4.17
2022-10-26T05:11:20.032Z,4.80
2022-10-26T05:14:21.594Z,4.18
2022-10-26T05:17:23.145Z,4.20
2022-10-26T05:20:31.994Z,3.97
2022-10-26T05:23:33.532Z,3.83
2022-10-26T05:26:35.055Z,4.40
2022-10-26T05:29:36.610Z,3.97
2022-10-26T05:32:38.133Z,4.03
2022-10-26T05:35:40.287Z,4.20
2022-10-26T05:38:41.807Z,4.20
2022-10-26T05:41:43.321Z,4.17
2022-10-26T05:44:44.854Z,4.30
2022-10-26T05:47:47.126Z,4.25
2022-10-26T05:50:49.051Z,4.30
2022-10-26T05:53:54.290Z,4.20
2022-10-26T05:56:56.400Z,4.55
2022-10-26T05:59:58.333Z,4.32
2022-10-26T06:03:43.220Z,4.30
2022-10-26T06:06:47.147Z,4.18
2022-10-26T06:09:49.537Z,4.30
2022-10-26T06:12:51.654Z,3.95
2022-10-26T06:16:02.699Z,4.20
2022-10-26T06:19:19.177Z,4.28
2022-10-26T06:22:37.416Z,4.35
2022-10-26T06:26:01.789Z,4.90
2022-10-26T06:29:25.318Z,4.60
2022-10-26T06:32:27.978Z,4.78
2022-10-26T06:35:37.250Z,4.75
2022-10-26T06:38:41.390Z,4.70
2022-10-26T06:41:43.312Z,5.25
2022-10-26T06:44:45.292Z,5.30
2022-10-26T06:48:07.478Z,5.38
2022-10-26T06:51:14.696Z,5.47
2022-10-26T06:54:21.228Z,5.65
2022-10-26T06:57:24.705Z,5.43
2022-10-26T07:00:26.758Z,5.65
2022-10-26T07:03:28.412Z,5.20
2022-10-26T07:06:31.694Z,5.50
2022-10-26T07:09:34.885Z,5.57
2022-10-26T07:12:36.961Z,4.80
2022-10-26T07:15:40.561Z,4.50
2022-10-26T07:18:42.122Z,4.60
2022-10-26T07:21:43.627Z,4.40
2022-10-26T07:24:45.199Z,4.20
2022-10-26T07:27:47.322Z,4.38
2022-10-26T07:30:51.787Z,4.63
2022-10-26T07:33:57.682Z,4.53
2022-10-26T07:37:00.058Z,4.05
2022-10-26T07:40:05.672Z,4.20
2022-10-26T07:43:08.258Z,3.97
2022-10-26T07:46:09.769Z,3.60
2022-10-26T07:49:11.580Z,4.22
2022-10-26T07:52:13.099Z,3.88
2022-10-26T07:55:14.823Z,3.70
2022-10-26T07:58:16.550Z,3.88
2022-10-26T08:01:18.185Z,3.30
2022-10-26T08:04:19.841Z,3.50
2022-10-26T08:07:21.764Z,3.90
2022-10-26T08:10:23.337Z,4.00
2022-10-26T08:13:24.975Z,3.65
2022-10-26T08:16:26.590Z,3.65
2022-10-26T08:19:28.135Z,3.53
2022-10-26T08:22:30.732Z,3.50
2022-10-26T08:25:33.182Z,3.60
2022-10-26T08:28:34.743Z,3.08
2022-10-26T08:31:36.245Z,3.00
2022-10-26T08:34:37.810Z,3.00
2022-10-26T08:37:39.325Z,3.00
2022-10-26T08:40:42.950Z,3.05
2022-10-26T08:43:52.727Z,2.67
2022-10-26T08:47:07.043Z,2.63
2022-10-26T08:50:31.381Z,2.58
2022-10-26T08:53:47.934Z,2.10
2022-10-26T08:56:57.028Z,2.30
2022-10-26T08:59:58.767Z,1.90
2022-10-26T09:03:00.281Z,1.80
2022-10-26T09:06:04.456Z,1.80
2022-10-26T09:09:15.063Z,1.90
2022-10-26T09:12:31.671Z,2.20
2022-10-26T09:15:47.970Z,2.33
2022-10-26T09:18:49.459Z,2.00
2022-10-26T09:22:20.753Z,1.95
2022-10-26T09:25:24.551Z,1.77
2022-10-26T09:28:28.539Z,1.95
2022-10-26T09:31:38.422Z,1.88
2022-10-26T09:34:53.824Z,1.98
2022-10-26T09:38:00.880Z,1.63
2022-10-26T09:41:08.522Z,1.92
2022-10-26T09:44:36.321Z,2.10
2022-10-26T09:47:46.427Z,2.33
2022-10-26T09:50:49.931Z,2.13
2022-10-26T09:53:51.510Z,1.70
2022-10-26T09:56:56.808Z,1.90
2022-10-26T09:59:58.378Z,1.97
2022-10-26T10:03:00.075Z,1.60
2022-10-26T10:06:17.643Z,2.10
2022-10-26T10:09:24.671Z,1.90
2022-10-26T10:12:26.241Z,1.55
2022-10-26T10:15:27.762Z,2.20
2022-10-26T10:18:29.733Z,1.40
2022-10-26T10:21:39.673Z,1.77
2022-10-26T10:24:54.878Z,1.98
2022-10-26T10:27:56.435Z,2.22
2022-10-26T10:31:07.139Z,1.90
2022-10-26T10:34:17.966Z,2.10
2022-10-26T10:37:30.495Z,2.00
2022-10-26T10:40:32.362Z,2.22
2022-10-26T10:43:36.320Z,1.70
2022-10-26T10:46:38.069Z,1.70
2022-10-26T10:49:39.686Z,2.05
2022-10-26T10:52:42.393Z,2.10
2022-10-26T10:55:55.224Z,2.03
2022-10-26T10:59:38.339Z,2.15
2022-10-26T11:03:05.817Z,2.00
2022-10-26T11:06:20.442Z,1.90
2022-10-26T11:09:27.801Z,2.00
2022-10-26T11:12:47.195Z,1.95
2022-10-26T11:15:52.912Z,2.00
2022-10-26T11:19:03.098Z,1.80
2022-10-26T11:22:09.201Z,2.00
2022-10-26T11:25:18.984Z,1.80
2022-10-26T11:28:37.460Z,1.58
2022-10-26T11:31:47.410Z,1.85
2022-10-26T11:35:13.951Z,1.70
2022-10-26T11:38:46.680Z,1.80
2022-10-26T11:42:46.950Z,1.40
2022-10-26T11:46:03.539Z,1.80
2022-10-26T11:52:44.746Z,1.90
2022-10-26T11:55:50.086Z,1.67
2022-10-26T11:58:52.423Z,1.70
2022-10-26T12:02:26.256Z,1.63
2022-10-26T12:05:37.050Z,1.50
2022-10-26T12:09:07.443Z,1.50
2022-10-26T12:12:37.798Z,1.83
2022-10-26T12:16:04.752Z,1.83
2022-10-26T12:19:18.424Z,1.80
2022-10-26T12:22:23.500Z,1.63
2022-10-26T12:25:25.068Z,1.60
2022-10-26T12:28:41.266Z,1.88
2022-10-26T12:31:43.599Z,1.80
2022-10-26T12:34:45.052Z,1.52
2022-10-26T12:37:46.642Z,1.70
2022-10-26T12:40:49.352Z,1.73
2022-10-26T12:43:56.118Z,1.80
2022-10-26T12:46:57.636Z,2.00
2022-10-26T12:50:22.597Z,2.13
2022-10-26T12:53:26.045Z,1.63
2022-10-26T12:56:50.212Z,2.03
2022-10-26T12:59:54.485Z,1.73
2022-10-26T13:03:02.179Z,1.70
2022-10-26T13:06:28.427Z,1.80
2022-10-26T13:09:33.344Z,1.70
2022-10-26T13:12:53.676Z,1.67
2022-10-26T13:15:57.275Z,1.70
2022-10-26T13:19:00.043Z,1.92
2022-10-26T13:22:01.836Z,1.95
2022-10-26T13:25:07.020Z,1.70
2022-10-26T13:28:32.269Z,1.77
2022-10-26T13:31:34.381Z,1.88
2022-10-26T13:34:42.512Z,1.60
2022-10-26T13:37:50.759Z,1.80
2022-10-26T13:41:03.896Z,1.90
2022-10-26T13:44:18.306Z,1.70
2022-10-26T13:47:49.325Z,2.38
2022-10-26T13:50:54.809Z,1.73
2022-10-26T13:54:34.986Z,1.73
2022-10-26T13:57:42.159Z,1.80
2022-10-26T14:01:10.424Z,1.90
2022-10-26T14:04:26.521Z,1.88
2022-10-26T14:07:37.489Z,1.80
2022-10-26T14:10:42.234Z,2.42
2022-10-26T14:13:44.107Z,1.80
2022-10-26T14:16:47.017Z,1.97
2022-10-26T14:19:49.806Z,1.75
2022-10-26T14:22:52.341Z,1.70
2022-10-26T14:25:58.867Z,1.88
2022-10-26T14:29:02.021Z,1.80
2022-10-26T14:32:25.723Z,2.10
2022-10-26T14:35:32.690Z,1.90
2022-10-26T14:38:44.052Z,1.80
2022-10-26T14:41:45.730Z,2.47
2022-10-26T14:44:47.357Z,1.98
2022-10-26T14:47:50.332Z,2.10
2022-10-26T14:51:15.542Z,2.13
2022-10-26T14:54:22.348Z,2.33
2022-10-26T14:57:35.816Z,3.70
2022-10-26T15:00:37.441Z,2.90
2022-10-26T15:03:39.423Z,3.70
2022-10-26T15:06:43.432Z,4.07
2022-10-26T15:09:49.552Z,3.30
2022-10-26T15:12:51.106Z,2.95
2022-10-26T15:15:58.064Z,2.70
2022-10-26T15:19:08.656Z,2.60
2022-10-26T15:22:23.148Z,2.85
2022-10-26T15:25:29.115Z,2.60
2022-10-26T15:28:40.563Z,2.65
2022-10-26T15:31:42.113Z,2.42
2022-10-26T15:34:48.492Z,2.50
2022-10-26T15:37:52.517Z,2.80
2022-10-26T15:40:54.042Z,2.67
2022-10-26T15:43:57.853Z,3.08
2022-10-26T15:47:05.085Z,2.50
2022-10-26T15:50:13.197Z,2.80
2022-10-26T15:53:28.609Z,2.78
2022-10-26T15:56:31.585Z,2.70
2022-10-26T15:59:33.154Z,3.00
2022-10-26T16:02:37.332Z,2.75
2022-10-26T16:05:38.909Z,2.90
2022-10-26T16:08:40.608Z,3.50
2022-10-26T16:11:43.018Z,3.53
2022-10-26T16:15:04.257Z,3.40
2022-10-26T16:18:06.165Z,3.50
2022-10-26T16:21:12.525Z,3.13
2022-10-26T16:24:14.167Z,3.20
2022-10-26T16:27:15.790Z,3.28
2022-10-26T16:30:18.285Z,3.38
2022-10-26T16:33:19.857Z,3.22
2022-10-26T16:46:11.769Z,3.40
2022-10-26T16:57:36.725Z,3.40
2022-10-26T17:00:38.306Z,4.05
2022-10-26T17:03:39.845Z,4.20
2022-10-26T17:06:41.797Z,4.55
2022-10-26T17:09:46.509Z,4.78
2022-10-26T17:12:48.416Z,4.50
2022-10-26T17:15:50.503Z,4.80
2022-10-26T17:18:53.028Z,4.97
2022-10-26T17:21:54.618Z,5.80
2022-10-26T17:24:56.377Z,6.05
2022-10-26T17:27:58.700Z,6.03
2022-10-26T17:31:12.221Z,6.55
2022-10-26T17:34:13.758Z,7.30
2022-10-26T17:37:15.401Z,7.18
2022-10-26T17:40:17.358Z,7.95
2022-10-26T17:43:18.912Z,7.27
2022-10-26T17:46:23.831Z,5.60
2022-10-26T17:49:27.968Z,4.95
2022-10-26T17:52:31.222Z,4.70
2022-10-26T17:55:32.787Z,4.65
2022-10-26T17:58:35.073Z,4.70
2022-10-26T18:01:36.720Z,5.47
2022-10-26T18:04:38.369Z,4.60
2022-10-26T18:07:39.901Z,5.07
2022-10-26T18:10:48.304Z,4.70
2022-10-26T18:13:49.848Z,4.33
2022-10-26T18:16:51.433Z,4.50
2022-10-26T18:19:52.971Z,4.78
2022-10-26T18:22:55.933Z,4.50
2022-10-26T18:26:12.887Z,5.30
2022-10-26T18:29:14.913Z,5.47
2022-10-26T18:32:16.450Z,6.00
2022-10-26T18:35:18.734Z,6.68
2022-10-26T18:38:20.246Z,6.40
2022-10-26T18:41:23.375Z,8.60
2022-10-26T18:44:24.945Z,8.03
2022-10-26T18:47:28.954Z,7.65
2022-10-26T18:50:30.478Z,7.72
2022-10-26T18:53:33.408Z,7.53
2022-10-26T18:56:34.964Z,7.23
2022-10-26T18:59:36.496Z,7.20
2022-10-26T19:02:38.050Z,7.60
2022-10-26T19:05:41.249Z,8.20
2022-10-26T19:08:43.882Z,9.00
2022-10-26T19:11:45.970Z,8.32
2022-10-26T19:14:47.572Z,9.52
2022-10-26T19:17:49.161Z,9.80
2022-10-26T19:20:50.656Z,9.93
2022-10-26T19:23:54.761Z,10.82
2022-10-26T19:26:56.683Z,11.05
2022-10-26T19:29:59.054Z,11.02
2022-10-26T19:33:00.606Z,10.95
2022-10-26T19:36:04.941Z,11.30
2022-10-26T19:39:07.463Z,10.23
2022-10-26T19:42:09.020Z,10.10
2022-10-26T19:45:10.821Z,9.35
2022-10-26T19:48:12.416Z,9.63
2022-10-26T19:51:14.108Z,9.50
2022-10-26T19:54:15.677Z,9.25
2022-10-26T19:57:17.163Z,9.38
2022-10-26T20:00:18.979Z,9.53
2022-10-26T20:03:23.270Z,9.57
2022-10-26T20:06:24.913Z,9.73
2022-10-26T20:09:27.270Z,10.13
2022-10-26T20:12:28.833Z,10.70
2022-10-26T20:15:30.362Z,10.20
2022-10-26T20:18:31.899Z,10.45
2022-10-26T20:21:33.502Z,9.25
2022-10-26T20:24:34.989Z,9.13
2022-10-26T20:27:41.365Z,8.77
2022-10-26T20:30:43.957Z,9.20
2022-10-26T20:33:48.609Z,8.90
2022-10-26T20:36:50.132Z,9.63
2022-10-26T20:39:52.396Z,9.30
2022-10-26T20:42:55.492Z,9.10
2022-10-26T20:45:57.699Z,8.85
2022-10-26T20:48:59.450Z,9.47
2022-10-26T20:52:21.086Z,9.38
2022-10-26T20:56:01.525Z,8.70
2022-10-26T20:59:04.076Z,9.90
2022-10-26T21:02:09.997Z,10.10
2022-10-26T21:05:11.537Z,10.02
2022-10-26T21:08:13.632Z,10.73
2022-10-26T21:11:15.850Z,10.63
2022-10-26T21:14:17.401Z,10.50
2022-10-26T21:17:19.181Z,11.05
2022-10-26T21:20:20.713Z,9.90
2022-10-26T21:23:22.205Z,9.80
2022-10-26T21:26:23.722Z,9.83
2022-10-26T21:29:25.277Z,9.82
2022-10-26T21:32:26.803Z,9.70
2022-10-26T21:35:28.329Z,9.32
2022-10-26T21:38:31.166Z,9.17
2022-10-26T21:41:36.210Z,9.13
2022-10-26T21:44:41.793Z,9.45
2022-10-26T21:47:44.864Z,8.98
2022-10-26T21:50:46.384Z,8.97
2022-10-26T21:53:49.272Z,8.68
2022-10-26T21:56:50.773Z,8.88
2022-10-26T21:59:52.306Z,8.75
2022-10-26T22:02:53.962Z,8.17
2022-10-26T22:05:55.584Z,8.40
2022-10-26T22:08:57.101Z,9.02
2022-10-26T22:11:58.723Z,8.70
2022-10-26T22:15:00.220Z,8.83
2022-10-26T22:18:01.759Z,8.55
2022-10-26T22:21:05.080Z,7.95
2022-10-26T22:24:07.285Z,7.78
2022-10-26T22:27:08.808Z,8.00
2022-10-26T22:30:11.157Z,7.90
2022-10-26T22:33:13.250Z,7.35
2022-10-26T22:36:15.973Z,7.23
2022-10-26T22:39:18.017Z,7.40
2022-10-26T22:42:19.656Z,7.50
2022-10-26T22:45:21.301Z,6.82
2022-10-26T22:48:22.854Z,7.13
2022-10-26T22:51:27.254Z,7.25
2022-10-26T22:54:28.805Z,6.90
2022-10-26T22:57:30.366Z,7.13
2022-10-26T23:00:31.927Z,7.03
2022-10-26T23:03:34.390Z,7.47
2022-10-26T23:06:36.029Z,7.70
2022-10-26T23:09:37.581Z,7.40
2022-10-26T23:12:39.110Z,7.28
2022-10-26T23:15:40.675Z,7.13
2022-10-26T23:18:42.298Z,7.13
2022-10-26T23:21:44.128Z,6.88
2022-10-26T23:24:45.710Z,7.18
2022-10-26T23:27:47.242Z,7.65
2022-10-26T23:30:48.806Z,7.40
2022-10-26T23:33:51.311Z,6.70
2022-10-26T23:36:53.298Z,7.28
2022-10-26T23:39:54.804Z,7.40
2022-10-26T23:42:56.367Z,6.60
2022-10-26T23:45:57.984Z,6.72
2022-10-26T23:48:59.560Z,7.07
2022-10-26T23:52:01.057Z,7.10
2022-10-26T23:55:02.619Z,6.55
2022-10-26T23:58:04.834Z,7.00
